createdAt,value
2019-03-05T00:17:22.548Z,7.08
2019-03-05T00:19:54.477Z,6.99
2019-03-05T00:22:25.265Z,6.89
2019-03-05T00:25:06.073Z,6.83
2019-03-05T00:27:48.369Z,6.79
2019-03-05T00:30:23.185Z,6.74
2019-03-05T00:33:01.525Z,6.71
2019-03-05T00:35:47.374Z,6.68
2019-03-05T00:39:09.899Z,6.68
2019-03-05T00:43:26.259Z,6.68
2019-03-05T00:46:08.056Z,6.67
2019-03-05T00:48:53.583Z,6.66
2019-03-05T00:57:57.899Z,6.70
2019-03-05T01:04:51.439Z,7.04
2019-03-05T01:07:27.403Z,6.94
2019-03-05T01:09:57.643Z,6.94
2019-03-05T01:12:27.708Z,7.04
2019-03-05T01:14:59.103Z,7.16
2019-03-05T01:17:29.447Z,7.33
2019-03-05T01:20:01.992Z,7.45
2019-03-05T01:22:35.388Z,7.43
2019-03-05T01:25:04.654Z,7.35
2019-03-05T01:27:34.074Z,7.28
2019-03-05T01:30:08.421Z,7.25
2019-03-05T01:32:45.593Z,7.23
2019-03-05T01:35:24.814Z,7.28
2019-03-05T01:37:57.610Z,7.31
2019-03-05T01:40:34.078Z,7.39
2019-03-05T01:43:04.855Z,7.44
2019-03-05T01:45:37.062Z,7.52
2019-03-05T01:48:07.391Z,7.59
2019-03-05T01:50:40.042Z,7.64
2019-03-05T01:53:10.905Z,7.68
2019-03-05T01:55:44.295Z,7.70
2019-03-05T01:58:14.803Z,7.68
2019-03-05T02:00:44.445Z,7.65
2019-03-05T02:03:15.255Z,7.64
2019-03-05T02:05:45.971Z,7.64
2019-03-05T02:08:17.202Z,7.61
2019-03-05T02:10:54.330Z,7.58
2019-03-05T02:13:27.442Z,7.55
2019-03-05T02:15:59.479Z,7.53
2019-03-05T02:18:33.142Z,7.51
2019-03-05T02:21:03.305Z,7.48
2019-03-05T02:23:53.947Z,7.47
2019-03-05T02:26:51.728Z,7.54
2019-03-05T02:29:43.118Z,7.72
2019-03-05T02:33:30.759Z,7.88
2019-03-05T02:36:15.580Z,7.90
2019-03-05T02:39:55.484Z,7.83
2019-03-05T02:42:56.843Z,7.73
2019-03-05T02:45:42.495Z,7.66
2019-03-05T02:48:37.953Z,7.59
2019-03-05T02:51:27.711Z,7.59
2019-03-05T02:54:10.932Z,7.62
2019-03-05T03:03:22.448Z,7.67
2019-03-05T03:05:57.991Z,7.66
2019-03-05T03:08:30.232Z,7.66
2019-03-05T03:11:01.337Z,7.69
2019-03-05T03:13:33.023Z,7.72
2019-03-05T03:16:04.754Z,7.80
2019-03-05T03:18:34.068Z,7.85
2019-03-05T03:21:03.675Z,7.87
2019-03-05T03:23:47.194Z,7.81
2019-03-05T03:26:18.970Z,7.83
2019-03-05T03:28:55.579Z,7.85
2019-03-05T03:31:27.540Z,7.86
2019-03-05T03:33:58.178Z,7.82
2019-03-05T03:36:28.955Z,7.75
2019-03-05T03:38:58.588Z,7.72
2019-03-05T03:41:35.554Z,7.68
2019-03-05T03:44:10.706Z,7.61
2019-03-05T03:46:46.125Z,7.57
2019-03-05T03:49:17.419Z,7.54
2019-03-05T03:51:51.206Z,7.49
2019-03-05T03:54:18.572Z,7.44
2019-03-05T03:56:50.097Z,7.42
2019-03-05T03:59:20.248Z,7.40
2019-03-05T04:01:52.315Z,7.37
2019-03-05T04:07:39.637Z,7.35
2019-03-05T04:10:13.055Z,7.32
2019-03-05T04:12:45.014Z,7.28
2019-03-05T04:15:18.470Z,7.27
2019-03-05T04:17:50.604Z,7.26
2019-03-05T04:20:32.441Z,7.23
2019-03-05T04:23:04.048Z,7.21
2019-03-05T04:25:35.978Z,7.22
2019-03-05T04:28:10.408Z,7.24
2019-03-05T04:30:41.551Z,7.25
2019-03-05T04:33:11.464Z,7.25
2019-03-05T04:35:45.365Z,7.26
2019-03-05T04:38:16.052Z,7.29
2019-03-05T04:40:47.785Z,7.37
2019-03-05T04:43:19.300Z,7.46
2019-03-05T04:45:54.850Z,7.58
2019-03-05T04:48:27.077Z,7.68
2019-03-05T04:51:00.930Z,7.72
2019-03-05T04:53:36.656Z,7.73
2019-03-05T04:56:10.419Z,7.72
2019-03-05T04:58:45.959Z,7.64
2019-03-05T05:01:18.919Z,7.47
2019-03-05T05:03:53.855Z,7.28
2019-03-05T05:06:26.527Z,7.11
2019-03-05T05:08:59.873Z,6.99
2019-03-05T05:11:33.329Z,6.91
2019-03-05T05:14:04.599Z,6.87
2019-03-05T05:19:13.324Z,6.82
2019-03-05T05:21:48.348Z,6.84
2019-03-05T05:24:19.719Z,6.85
2019-03-05T05:26:51.643Z,6.87
2019-03-05T05:29:20.870Z,6.88
2019-03-05T05:31:53.557Z,6.91
2019-03-05T05:34:25.174Z,6.89
2019-03-05T05:36:55.097Z,6.87
2019-03-05T05:39:36.377Z,6.89
2019-03-05T05:42:06.993Z,6.96
2019-03-05T05:44:36.928Z,7.00
2019-03-05T05:47:06.833Z,7.02
2019-03-05T05:49:39.105Z,7.03
2019-03-05T05:52:10.693Z,7.02
2019-03-05T05:54:43.513Z,7.00
2019-03-05T05:57:15.244Z,6.98
2019-03-05T05:59:46.750Z,6.95
2019-03-05T06:02:23.336Z,6.94
2019-03-05T06:04:52.528Z,6.98
2019-03-05T06:07:23.852Z,7.01
2019-03-05T06:09:54.303Z,7.10
2019-03-05T06:15:08.039Z,7.33
2019-03-05T06:17:40.849Z,7.43
2019-03-05T06:20:12.832Z,7.50
2019-03-05T06:22:43.990Z,7.53
2019-03-05T06:25:13.263Z,7.52
2019-03-05T06:27:44.382Z,7.47
2019-03-05T06:30:17.241Z,7.43
2019-03-05T06:32:48.206Z,7.36
2019-03-05T06:35:23.676Z,7.33
2019-03-05T06:37:55.763Z,7.31
2019-03-05T06:40:29.565Z,7.30
2019-03-05T06:43:09.137Z,7.30
2019-03-05T06:45:43.992Z,7.27
2019-03-05T06:48:20.085Z,7.26
2019-03-05T06:50:53.175Z,7.25
2019-03-05T06:53:28.328Z,7.25
2019-03-05T06:56:02.857Z,7.26
2019-03-05T06:58:33.651Z,7.27
2019-03-05T07:01:09.228Z,7.29
2019-03-05T07:03:43.540Z,7.34
2019-03-05T07:06:25.963Z,7.29
2019-03-05T07:09:07.632Z,7.25
2019-03-05T07:11:49.944Z,7.23
2019-03-05T07:14:29.718Z,7.21
2019-03-05T07:17:07.254Z,7.20
2019-03-05T07:20:07.546Z,7.21
2019-03-05T07:22:51.427Z,7.23
2019-03-05T07:25:36.419Z,7.26
2019-03-05T07:28:08.106Z,7.33
2019-03-05T07:30:43.629Z,7.40
2019-03-05T07:33:21.144Z,7.50
2019-03-05T07:35:54.688Z,7.56
2019-03-05T07:38:24.713Z,7.59
2019-03-05T07:40:55.269Z,7.65
2019-03-05T07:43:36.380Z,7.73
2019-03-05T07:46:01.027Z,7.98
2019-03-05T07:48:32.784Z,8.18
2019-03-05T07:51:11.000Z,8.35
2019-03-05T07:53:43.032Z,8.47
2019-03-05T07:56:13.759Z,8.48
2019-03-05T07:58:46.175Z,8.45
2019-03-05T08:01:22.692Z,8.41
2019-03-05T08:03:53.684Z,8.37
2019-03-05T08:06:25.465Z,8.33
2019-03-05T08:09:09.092Z,8.33
2019-03-05T08:11:43.692Z,8.38
2019-03-05T08:15:31.721Z,8.43
2019-03-05T08:18:05.832Z,8.42
2019-03-05T08:20:38.016Z,8.43
2019-03-05T08:23:10.373Z,8.42
2019-03-05T08:25:44.923Z,8.43
2019-03-05T08:28:27.515Z,8.44
2019-03-05T08:31:01.205Z,8.41
2019-03-05T08:33:33.576Z,8.42
2019-03-05T08:36:05.564Z,8.45
2019-03-05T08:38:38.012Z,8.48
2019-03-05T08:41:10.593Z,8.51
2019-03-05T08:43:45.790Z,8.53
2019-03-05T08:46:19.252Z,8.55
2019-03-05T08:48:51.238Z,8.59
2019-03-05T08:51:22.415Z,8.66
2019-03-05T08:53:58.597Z,8.72
2019-03-05T08:56:37.604Z,8.77
2019-03-05T08:59:07.752Z,8.85
2019-03-05T09:01:42.924Z,8.97
2019-03-05T09:04:17.690Z,9.11
2019-03-05T09:06:50.030Z,9.21
2019-03-05T09:09:19.556Z,9.29
2019-03-05T09:11:50.252Z,9.34
2019-03-05T09:14:21.264Z,9.39
2019-03-05T09:16:52.484Z,9.42
2019-03-05T09:19:24.345Z,9.47
2019-03-05T09:21:54.462Z,9.52
2019-03-05T09:24:26.550Z,9.60
2019-03-05T09:27:01.712Z,9.69
2019-03-05T09:29:35.301Z,9.77
2019-03-05T09:32:04.862Z,9.85
2019-03-05T09:34:38.625Z,9.90
2019-03-05T09:37:14.863Z,9.90
2019-03-05T09:39:46.971Z,9.87
2019-03-05T09:42:23.629Z,9.83
2019-03-05T09:44:59.214Z,9.79
2019-03-05T09:47:33.372Z,9.78
2019-03-05T09:50:07.588Z,9.82
2019-03-05T09:52:54.464Z,9.86
2019-03-05T09:55:19.941Z,9.86
2019-03-05T09:58:07.512Z,9.85
2019-03-05T10:03:10.260Z,9.86
2019-03-05T10:05:40.098Z,9.86
2019-03-05T10:08:12.479Z,9.89
2019-03-05T10:13:25.574Z,9.94
2019-03-05T10:15:59.174Z,10.00
2019-03-05T10:18:31.612Z,10.05
2019-03-05T10:21:03.748Z,10.12
2019-03-05T10:23:35.875Z,10.21
2019-03-05T10:26:11.433Z,10.29
2019-03-05T10:28:41.809Z,10.36
2019-03-05T10:31:13.148Z,10.44
2019-03-05T10:33:44.482Z,10.52
2019-03-05T10:36:16.546Z,10.61
2019-03-05T10:38:56.957Z,10.66
2019-03-05T10:41:24.683Z,10.69
2019-03-05T10:44:03.834Z,10.72
2019-03-05T10:46:41.204Z,10.75
2019-03-05T10:49:13.917Z,10.78
2019-03-05T10:51:44.435Z,10.82
2019-03-05T10:54:15.690Z,10.86
2019-03-05T10:56:46.037Z,10.91
2019-03-05T10:59:16.964Z,10.94
2019-03-05T11:01:49.955Z,11.01
2019-03-05T11:04:26.427Z,11.05
2019-03-05T11:06:55.926Z,11.07
2019-03-05T11:09:27.182Z,11.09
2019-03-05T11:12:05.280Z,11.12
2019-03-05T11:14:39.497Z,11.15
2019-03-05T11:17:09.869Z,11.19
2019-03-05T11:19:40.399Z,11.23
2019-03-05T11:22:13.282Z,11.28
2019-03-05T11:25:07.897Z,11.33
2019-03-05T11:27:39.351Z,11.35
2019-03-05T11:30:14.319Z,11.38
2019-03-05T11:32:47.429Z,11.43
2019-03-05T11:35:18.710Z,11.46
2019-03-05T11:37:50.803Z,11.48
2019-03-05T11:40:25.195Z,11.50
2019-03-05T11:42:59.296Z,11.52
2019-03-05T11:45:30.342Z,11.54
2019-03-05T11:48:02.518Z,11.55
2019-03-05T11:50:33.977Z,11.57
2019-03-05T11:53:08.146Z,11.60
2019-03-05T11:55:40.942Z,11.63
2019-03-05T11:58:12.984Z,11.68
2019-03-05T12:00:51.111Z,11.70
2019-03-05T12:03:21.999Z,11.70
2019-03-05T12:05:56.374Z,11.72
2019-03-05T12:08:29.057Z,11.72
2019-03-05T12:11:09.562Z,11.75
2019-03-05T12:13:47.923Z,11.78
2019-03-05T12:16:18.660Z,11.82
2019-03-05T12:18:50.809Z,11.87
2019-03-05T12:21:22.664Z,11.88
2019-03-05T12:23:52.510Z,11.87
2019-03-05T12:26:27.738Z,11.88
2019-03-05T12:29:01.965Z,11.89
2019-03-05T12:31:46.134Z,11.87
2019-03-05T12:34:19.026Z,11.87
2019-03-05T12:36:49.115Z,11.86
2019-03-05T12:39:20.255Z,11.89
2019-03-05T12:41:55.530Z,11.91
2019-03-05T12:44:25.706Z,11.93
2019-03-05T12:47:00.204Z,11.93
2019-03-05T12:49:30.939Z,11.95
2019-03-05T12:52:01.393Z,11.96
2019-03-05T12:54:45.546Z,11.95
2019-03-05T12:57:18.309Z,11.94
2019-03-05T12:59:50.471Z,11.93
2019-03-05T13:02:21.510Z,11.91
2019-03-05T13:04:52.607Z,11.91
2019-03-05T13:07:21.657Z,11.91
2019-03-05T13:09:56.990Z,11.89
2019-03-05T13:12:36.007Z,11.89
2019-03-05T13:15:08.878Z,11.91
2019-03-05T13:17:40.572Z,11.91
2019-03-05T13:20:16.257Z,11.91
2019-03-05T13:22:48.537Z,11.93
2019-03-05T13:28:01.447Z,11.93
2019-03-05T13:30:34.911Z,11.91
2019-03-05T13:33:07.112Z,11.89
2019-03-05T13:35:50.475Z,11.87
2019-03-05T13:38:22.484Z,11.86
2019-03-05T13:40:53.935Z,11.86
2019-03-05T13:43:29.175Z,11.85
2019-03-05T13:46:01.069Z,11.86
2019-03-05T13:49:18.004Z,11.85
2019-03-05T13:52:12.553Z,11.83
2019-03-05T13:55:08.005Z,11.81
2019-03-05T13:58:13.993Z,11.75
2019-03-05T14:01:12.016Z,11.70
2019-03-05T14:03:54.809Z,11.63
2019-03-05T14:06:39.229Z,11.57
2019-03-05T14:09:16.185Z,11.50
2019-03-05T14:11:52.387Z,11.49
2019-03-05T14:14:28.873Z,11.49
2019-03-05T14:17:10.129Z,11.50
2019-03-05T14:19:43.275Z,11.50
2019-03-05T14:22:14.758Z,11.49
2019-03-05T14:24:46.266Z,11.48
2019-03-05T14:27:16.884Z,11.48
2019-03-05T14:32:30.005Z,11.50
2019-03-05T14:35:11.277Z,11.50
2019-03-05T14:37:44.837Z,11.50
2019-03-05T14:40:24.556Z,11.49
2019-03-05T14:42:57.935Z,11.48
2019-03-05T14:45:59.309Z,11.47
2019-03-05T14:48:33.652Z,11.48
2019-03-05T14:51:12.641Z,11.49
2019-03-05T14:53:45.300Z,11.47
2019-03-05T14:56:18.764Z,11.47
2019-03-05T14:58:55.573Z,11.47
2019-03-05T15:01:28.169Z,11.47
2019-03-05T15:03:58.227Z,11.45
2019-03-05T15:06:29.333Z,11.40
2019-03-05T15:09:06.156Z,11.36
2019-03-05T15:11:37.389Z,11.35
2019-03-05T15:14:08.730Z,11.34
2019-03-05T15:16:55.493Z,11.33
2019-03-05T15:19:37.072Z,11.32
2019-03-05T15:22:11.745Z,11.29
2019-03-05T15:24:45.205Z,11.29
2019-03-05T15:27:26.328Z,11.29
2019-03-05T15:30:04.891Z,11.28
2019-03-05T15:32:37.259Z,11.26
2019-03-05T15:35:13.391Z,11.24
2019-03-05T15:37:50.815Z,11.22
2019-03-05T15:40:21.989Z,11.18
2019-03-05T15:43:10.441Z,11.17
2019-03-05T15:45:48.261Z,11.18
2019-03-05T15:48:20.898Z,11.17
2019-03-05T15:50:55.044Z,11.17
2019-03-05T15:53:30.462Z,11.17
2019-03-05T15:56:11.644Z,11.16
2019-03-05T15:58:43.279Z,11.15
2019-03-05T16:01:27.809Z,11.12
2019-03-05T16:04:09.498Z,11.11
2019-03-05T16:06:42.669Z,11.12
2019-03-05T16:09:25.734Z,11.14
2019-03-05T16:11:59.608Z,11.15
2019-03-05T16:14:35.297Z,11.15
2019-03-05T16:17:05.773Z,11.16
2019-03-05T16:19:36.851Z,11.16
2019-03-05T16:22:14.265Z,11.18
2019-03-05T16:24:43.641Z,11.17
2019-03-05T16:27:18.550Z,11.17
2019-03-05T16:29:55.779Z,11.16
2019-03-05T16:32:40.758Z,11.16
2019-03-05T16:35:18.443Z,11.12
2019-03-05T16:38:02.871Z,11.11
2019-03-05T16:40:44.543Z,11.12
2019-03-05T16:43:19.575Z,11.11
2019-03-05T16:46:02.188Z,11.11
2019-03-05T16:48:40.213Z,11.10
2019-03-05T16:51:19.514Z,11.09
2019-03-05T16:58:09.459Z,11.07
2019-03-05T17:01:49.075Z,11.01
2019-03-05T17:04:40.765Z,10.98
2019-03-05T17:07:28.205Z,10.97
2019-03-05T17:10:06.498Z,10.99
2019-03-05T17:12:39.791Z,10.97
2019-03-05T17:15:14.730Z,10.96
2019-03-05T17:17:45.355Z,10.95
2019-03-05T17:20:15.783Z,10.96
2019-03-05T17:22:50.472Z,10.96
2019-03-05T17:25:25.189Z,10.97
2019-03-05T17:27:59.160Z,10.97
2019-03-05T17:30:30.325Z,10.95
2019-03-05T17:33:01.749Z,10.94
2019-03-05T17:35:36.352Z,10.93
2019-03-05T17:38:09.142Z,10.92
2019-03-05T17:40:40.432Z,10.91
2019-03-05T17:43:12.832Z,10.89
2019-03-05T17:45:44.722Z,10.88
2019-03-05T17:48:17.815Z,10.85
2019-03-05T17:50:49.122Z,10.82
2019-03-05T17:53:20.193Z,10.80
2019-03-05T17:55:56.818Z,10.73
2019-03-05T17:58:29.675Z,10.68
2019-03-05T18:01:05.460Z,10.63
2019-03-05T18:06:13.980Z,10.58
2019-03-05T18:08:46.771Z,10.52
2019-03-05T18:11:18.737Z,10.49
2019-03-05T18:13:50.372Z,10.46
2019-03-05T18:16:19.989Z,10.44
2019-03-05T18:18:51.527Z,10.42
2019-03-05T18:21:21.407Z,10.40
2019-03-05T18:23:53.166Z,10.37
2019-03-05T18:26:28.443Z,10.34
2019-03-05T18:29:01.469Z,10.32
2019-03-05T18:31:33.007Z,10.29
2019-03-05T18:34:05.481Z,10.27
2019-03-05T18:36:37.920Z,10.22
2019-03-05T18:39:12.749Z,10.19
2019-03-05T18:41:42.631Z,10.17
2019-03-05T18:44:14.439Z,10.14
2019-03-05T18:46:46.212Z,10.11
2019-03-05T18:49:21.278Z,10.06
2019-03-05T18:51:51.307Z,10.05
2019-03-05T18:54:22.976Z,10.01
2019-03-05T18:56:54.992Z,9.99
2019-03-05T18:59:28.545Z,9.95
2019-03-05T19:02:00.481Z,9.93
2019-03-05T19:04:37.049Z,9.92
2019-03-05T19:07:08.843Z,9.89
2019-03-05T19:09:39.422Z,9.87
2019-03-05T19:12:12.419Z,9.83
2019-03-05T19:14:44.300Z,9.80
2019-03-05T19:17:13.415Z,9.76
2019-03-05T19:19:44.252Z,9.74
2019-03-05T19:22:15.074Z,9.71
2019-03-05T19:24:50.409Z,9.71
2019-03-05T19:27:27.267Z,9.69
2019-03-05T19:29:58.534Z,9.68
2019-03-05T19:32:29.204Z,9.65
2019-03-05T19:35:06.415Z,9.61
2019-03-05T19:37:36.637Z,9.60
2019-03-05T19:40:08.166Z,9.59
2019-03-05T19:42:40.994Z,9.60
2019-03-05T19:45:12.300Z,9.61
2019-03-05T19:47:47.357Z,9.62
2019-03-05T19:50:17.844Z,9.64
2019-03-05T19:52:55.628Z,9.67
2019-03-05T19:55:27.160Z,9.68
2019-03-05T19:58:01.782Z,9.71
2019-03-05T20:00:36.880Z,9.72
2019-03-05T20:03:07.800Z,9.73
2019-03-05T20:05:40.067Z,9.75
2019-03-05T20:08:08.339Z,9.76
2019-03-05T20:10:41.897Z,9.77
2019-03-05T20:13:11.489Z,9.77
2019-03-05T20:15:42.988Z,9.79
2019-03-05T20:18:16.880Z,9.80
2019-03-05T20:20:50.622Z,9.79
2019-03-05T20:23:21.405Z,9.81
2019-03-05T20:25:55.761Z,9.81
2019-03-05T20:28:26.780Z,9.81
2019-03-05T20:31:00.320Z,9.84
2019-03-05T20:33:30.776Z,9.87
2019-03-05T20:36:00.381Z,9.88
2019-03-05T20:38:33.341Z,9.91
2019-03-05T20:41:05.082Z,9.93
2019-03-05T20:43:37.956Z,9.97
2019-03-05T20:46:17.291Z,10.03
2019-03-05T20:48:46.466Z,10.07
2019-03-05T20:51:19.841Z,10.12
2019-03-05T20:53:50.928Z,10.18
2019-03-05T20:56:24.274Z,10.24
2019-03-05T20:58:54.985Z,10.30
2019-03-05T21:01:30.761Z,10.36
2019-03-05T21:04:00.982Z,10.39
2019-03-05T21:06:32.266Z,10.42
2019-03-05T21:09:06.855Z,10.44
2019-03-05T21:11:38.357Z,10.46
2019-03-05T21:14:10.165Z,10.48
2019-03-05T21:16:43.775Z,10.51
2019-03-05T21:19:13.756Z,10.54
2019-03-05T21:21:45.401Z,10.57
2019-03-05T21:24:15.407Z,10.59
2019-03-05T21:26:46.764Z,10.61
2019-03-05T21:29:17.383Z,10.62
2019-03-05T21:31:50.266Z,10.62
2019-03-05T21:34:22.678Z,10.64
2019-03-05T21:36:54.805Z,10.65
2019-03-05T21:39:25.679Z,10.64
2019-03-05T21:41:57.791Z,10.63
2019-03-05T21:44:30.508Z,10.62
2019-03-05T21:47:01.449Z,10.63
2019-03-05T21:49:31.512Z,10.60
2019-03-05T21:52:07.118Z,10.61
2019-03-05T21:54:43.778Z,10.60
2019-03-05T21:57:14.364Z,10.60
2019-03-05T21:59:44.357Z,10.61
2019-03-05T22:02:18.087Z,10.60
2019-03-05T22:04:53.398Z,10.59
2019-03-05T22:07:25.355Z,10.59
2019-03-05T22:09:55.915Z,10.60
2019-03-05T22:12:28.512Z,10.60
2019-03-05T22:15:04.535Z,10.59
2019-03-05T22:17:42.128Z,10.59
2019-03-05T22:20:13.334Z,10.58
2019-03-05T22:22:45.228Z,10.57
2019-03-05T22:25:16.891Z,10.58
2019-03-05T22:27:47.234Z,10.56
2019-03-05T22:30:19.566Z,10.57
2019-03-05T22:32:50.776Z,10.57
2019-03-05T22:35:21.511Z,10.58
2019-03-05T22:37:53.163Z,10.57
2019-03-05T22:40:24.962Z,10.55
2019-03-05T22:55:10.203Z,10.47
2019-03-05T22:57:44.523Z,10.45
2019-03-05T23:03:10.004Z,10.45
2019-03-05T23:05:46.740Z,10.45
2019-03-05T23:08:17.116Z,10.45
2019-03-05T23:10:46.999Z,10.46
2019-03-05T23:13:17.015Z,10.47
2019-03-05T23:15:48.733Z,10.48
2019-03-05T23:18:21.441Z,10.47
2019-03-05T23:20:54.269Z,10.46
2019-03-05T23:23:24.915Z,10.45
2019-03-05T23:25:55.317Z,10.43
2019-03-05T23:28:29.953Z,10.43
2019-03-05T23:31:06.110Z,10.42
2019-03-05T23:33:37.530Z,10.41
2019-03-05T23:36:14.282Z,10.41
2019-03-05T23:38:46.714Z,10.39
2019-03-05T23:41:18.132Z,10.40
2019-03-05T23:43:52.532Z,10.41
2019-03-05T23:46:32.291Z,10.41
2019-03-05T23:49:12.279Z,10.43
2019-03-05T23:51:42.354Z,10.43
2019-03-05T23:54:14.126Z,10.44
2019-03-05T23:56:49.563Z,10.45
2019-03-05T23:59:23.616Z,10.44
